createdAt,value
2022-10-30T00:00:43.475Z,-139.23
2022-10-30T00:03:13.622Z,-139.23
2022-10-30T00:05:43.292Z,-139.23
2022-10-30T00:08:12.133Z,-139.23
2022-10-30T00:10:40.493Z,-139.23
2022-10-30T00:13:08.233Z,-139.23
2022-10-30T00:15:37.165Z,-139.23
2022-10-30T00:18:05.082Z,-139.23
2022-10-30T00:20:32.627Z,-139.23
2022-10-30T00:23:00.520Z,-139.23
2022-10-30T00:25:35.569Z,-139.23
2022-10-30T00:28:03.573Z,14.29
2022-10-30T00:30:31.371Z,-139.23
2022-10-30T00:33:00.717Z,-139.23
2022-10-30T00:35:31.309Z,-139.23
2022-10-30T00:38:01.134Z,-139.23
2022-10-30T00:40:29.570Z,-139.23
2022-10-30T00:43:05.574Z,-139.23
2022-10-30T00:45:33.302Z,-139.23
2022-10-30T00:48:05.519Z,-139.23
2022-10-30T00:50:37.482Z,-139.23
2022-10-30T00:53:09.997Z,-139.23
2022-10-30T00:55:55.909Z,-139.23
2022-10-30T00:58:30.029Z,-139.23
2022-10-30T01:01:01.336Z,-139.23
2022-10-30T01:03:31.444Z,-139.23
2022-10-30T01:06:03.852Z,-139.23
2022-10-30T01:08:32.633Z,-139.23
2022-10-30T01:11:03.732Z,-139.23
2022-10-30T01:13:42.167Z,-139.23
2022-10-30T01:16:26.997Z,-139.23
2022-10-30T01:20:06.527Z,-139.23
2022-10-30T01:23:45.566Z,-139.23
2022-10-30T01:27:16.152Z,-139.23
2022-10-30T01:30:41.469Z,14.29
2022-10-30T01:34:12.319Z,-139.23
2022-10-30T01:37:44.976Z,-139.23
2022-10-30T01:40:14.936Z,14.46
2022-10-30T01:43:15.735Z,-139.23
2022-10-30T01:46:55.570Z,-139.23
2022-10-30T01:50:46.063Z,-139.23
2022-10-30T01:54:23.409Z,-139.23
2022-10-30T01:57:55.499Z,-139.23
2022-10-30T02:01:22.364Z,-139.23
2022-10-30T02:04:50.352Z,-139.23
2022-10-30T02:08:16.504Z,-139.23
2022-10-30T02:11:16.935Z,14.46
2022-10-30T02:14:44.742Z,-139.23
2022-10-30T02:18:12.229Z,-139.23
2022-10-30T02:21:23.813Z,-139.23
2022-10-30T02:24:49.752Z,-139.23
2022-10-30T02:28:14.827Z,-139.23
2022-10-30T02:31:41.430Z,-139.23
2022-10-30T02:35:06.329Z,-139.23
2022-10-30T02:38:05.729Z,14.46
2022-10-30T02:41:31.825Z,-139.23
2022-10-30T02:44:57.995Z,-139.23
2022-10-30T02:51:21.659Z,-139.23
2022-10-30T02:53:50.881Z,-139.23
2022-10-30T02:57:17.358Z,-139.23
2022-10-30T03:00:43.325Z,-139.23
2022-10-30T03:04:09.707Z,-139.23
2022-10-30T03:07:35.833Z,-139.23
2022-10-30T03:11:04.612Z,-139.23
2022-10-30T03:14:32.250Z,-139.23
2022-10-30T03:17:58.591Z,-139.23
2022-10-30T03:21:26.473Z,-139.23
2022-10-30T03:24:53.478Z,-139.23
2022-10-30T03:28:20.923Z,-139.23
2022-10-30T03:31:47.309Z,-139.23
2022-10-30T03:35:13.362Z,-139.23
2022-10-30T03:38:39.848Z,-139.23
2022-10-30T03:42:06.662Z,-139.23
2022-10-30T03:45:34.369Z,-139.23
2022-10-30T03:49:00.670Z,-139.23
2022-10-30T03:52:28.115Z,-139.23
2022-10-30T03:55:54.426Z,-139.23
2022-10-30T03:59:20.417Z,-139.23
2022-10-30T04:02:48.601Z,-139.23
2022-10-30T04:06:15.547Z,-139.23
2022-10-30T04:09:41.664Z,-139.23
2022-10-30T04:13:08.507Z,-139.23
2022-10-30T04:16:36.212Z,-139.23
2022-10-30T04:20:04.059Z,-139.23
2022-10-30T04:23:30.341Z,-139.23
2022-10-30T04:26:56.547Z,-139.23
2022-10-30T04:30:24.992Z,-139.23
2022-10-30T04:33:51.965Z,-139.23
2022-10-30T04:37:19.470Z,-139.23
2022-10-30T04:40:45.473Z,-139.23
2022-10-30T04:44:12.184Z,-139.23
2022-10-30T04:47:38.428Z,-139.23
2022-10-30T04:51:05.482Z,-139.23
2022-10-30T04:54:32.923Z,-139.23
2022-10-30T04:58:00.272Z,-139.23
2022-10-30T05:01:27.558Z,-139.23
2022-10-30T05:04:53.725Z,-139.23
2022-10-30T05:08:20.299Z,-139.23
2022-10-30T05:11:48.161Z,-139.23
2022-10-30T05:15:15.071Z,-139.23
2022-10-30T05:18:41.306Z,-139.23
2022-10-30T05:22:07.507Z,-139.23
2022-10-30T05:25:33.775Z,-139.23
2022-10-30T05:29:04.386Z,-139.23
2022-10-30T05:32:31.164Z,-139.23
2022-10-30T05:35:57.215Z,-139.23
2022-10-30T05:38:49.219Z,-139.23
2022-10-30T05:42:15.538Z,-139.23
2022-10-30T05:45:42.925Z,-139.23
2022-10-30T05:49:09.288Z,-139.23
2022-10-30T05:52:35.294Z,-139.23
2022-10-30T05:56:01.587Z,-139.23
2022-10-30T05:59:27.544Z,-139.23
2022-10-30T06:03:00.242Z,-139.23
2022-10-30T06:06:27.115Z,-139.23
2022-10-30T06:09:53.343Z,-139.23
2022-10-30T06:13:19.517Z,-139.23
2022-10-30T06:16:45.473Z,-139.23
2022-10-30T06:20:12.991Z,-139.23
2022-10-30T06:23:39.214Z,-139.23
2022-10-30T06:27:05.507Z,-139.23
2022-10-30T06:30:25.881Z,-139.23
2022-10-30T06:33:05.321Z,-139.23
2022-10-30T06:36:22.265Z,-139.23
2022-10-30T06:39:48.632Z,-139.23
2022-10-30T06:43:14.614Z,-139.23
2022-10-30T06:45:56.028Z,14.46
2022-10-30T06:49:21.060Z,-139.23
2022-10-30T06:52:50.223Z,-139.23
2022-10-30T06:56:16.441Z,-139.23
2022-10-30T06:58:43.884Z,11.91
2022-10-30T07:01:21.613Z,11.91
2022-10-30T07:03:59.514Z,-139.23
2022-10-30T07:07:10.110Z,23.04
2022-10-30T07:09:43.798Z,11.91
2022-10-30T07:13:05.997Z,-139.23
2022-10-30T07:15:53.170Z,-139.23
2022-10-30T07:18:32.445Z,-139.23
2022-10-30T07:21:38.480Z,-139.23
2022-10-30T07:24:51.610Z,-139.23
2022-10-30T07:27:50.483Z,-139.23
2022-10-30T07:30:52.695Z,-139.23
2022-10-30T07:33:33.585Z,-139.23
2022-10-30T07:36:02.971Z,-139.23
2022-10-30T07:38:53.866Z,-139.23
2022-10-30T07:41:26.895Z,-139.23
2022-10-30T07:43:54.377Z,-139.23
2022-10-30T07:46:49.505Z,-139.23
2022-10-30T07:49:18.997Z,-139.23
2022-10-30T07:51:53.963Z,-139.23
2022-10-30T07:54:21.443Z,-139.23
2022-10-30T07:56:55.617Z,-139.23
2022-10-30T07:59:31.893Z,-139.23
2022-10-30T08:02:28.769Z,-139.23
2022-10-30T08:04:56.300Z,-139.23
2022-10-30T08:07:23.942Z,14.56
2022-10-30T08:09:51.413Z,-139.23
2022-10-30T08:12:20.403Z,-139.23
2022-10-30T08:14:48.098Z,-139.23
2022-10-30T08:17:15.759Z,-139.23
2022-10-30T08:19:46.833Z,-139.23
2022-10-30T08:22:28.098Z,-139.23
2022-10-30T08:25:02.283Z,14.56
2022-10-30T08:28:19.941Z,-139.23
2022-10-30T08:30:47.398Z,-139.23
2022-10-30T08:33:21.838Z,-139.23
2022-10-30T08:35:50.615Z,-139.23
2022-10-30T08:39:16.982Z,-139.23
2022-10-30T08:41:49.165Z,14.56
2022-10-30T08:45:16.514Z,-139.23
2022-10-30T08:48:40.575Z,-139.23
2022-10-30T08:52:08.658Z,-139.23
2022-10-30T08:55:25.048Z,-139.23
2022-10-30T08:57:56.874Z,-139.23
2022-10-30T09:01:09.859Z,-139.23
2022-10-30T09:04:35.953Z,-139.23
2022-10-30T09:07:12.917Z,-139.23
2022-10-30T09:09:40.718Z,-139.23
2022-10-30T09:12:08.268Z,-139.23
2022-10-30T09:14:37.595Z,-139.23
2022-10-30T09:17:26.312Z,-139.23
2022-10-30T09:20:12.128Z,-139.23
2022-10-30T09:22:49.457Z,-139.23
2022-10-30T09:25:57.943Z,-139.23
2022-10-30T09:28:25.478Z,-139.23
2022-10-30T09:30:56.203Z,-139.23
2022-10-30T09:33:25.031Z,-139.23
2022-10-30T09:35:52.504Z,-139.23
2022-10-30T09:38:19.927Z,-139.23
2022-10-30T09:41:10.337Z,22.76
2022-10-30T09:43:50.835Z,23.15
2022-10-30T09:46:33.439Z,23.73
2022-10-30T09:49:11.975Z,24.60
2022-10-30T09:51:55.119Z,25.15
2022-10-30T09:54:36.107Z,25.67
2022-10-30T09:57:08.274Z,25.80
2022-10-30T09:59:50.071Z,26.80
2022-10-30T10:02:33.763Z,27.53
2022-10-30T10:05:07.837Z,26.87
2022-10-30T10:07:41.152Z,27.15
2022-10-30T10:10:16.751Z,27.67
2022-10-30T10:12:47.540Z,28.57
2022-10-30T10:15:20.636Z,29.29
2022-10-30T10:17:48.138Z,29.60
2022-10-30T10:20:27.822Z,29.26
2022-10-30T10:22:58.368Z,28.76
2022-10-30T10:25:27.237Z,28.47
2022-10-30T10:28:07.825Z,28.25
2022-10-30T10:30:44.514Z,28.80
2022-10-30T10:33:30.083Z,27.85
2022-10-30T10:36:11.943Z,28.51
2022-10-30T10:38:57.925Z,29.75
2022-10-30T10:41:36.115Z,29.03
2022-10-30T10:44:21.574Z,29.56
2022-10-30T10:47:06.978Z,30.38
2022-10-30T10:49:49.842Z,29.31
2022-10-30T10:52:21.731Z,30.58
2022-10-30T10:54:53.442Z,30.96
2022-10-30T10:57:30.667Z,30.33
2022-10-30T11:00:03.602Z,30.94
2022-10-30T11:02:39.441Z,31.77
2022-10-30T11:05:14.696Z,30.22
2022-10-30T11:07:49.020Z,28.82
2022-10-30T11:10:18.803Z,29.60
2022-10-30T11:12:46.540Z,29.71
2022-10-30T11:15:26.507Z,30.10
2022-10-30T11:18:02.024Z,31.36
2022-10-30T11:20:37.069Z,31.83
2022-10-30T11:23:33.197Z,32.33
2022-10-30T11:26:05.097Z,32.07
2022-10-30T11:28:43.748Z,32.12
2022-10-30T11:31:23.800Z,31.48
2022-10-30T11:33:52.097Z,32.39
2022-10-30T11:36:23.830Z,31.40
2022-10-30T11:38:53.439Z,29.89
2022-10-30T11:41:21.682Z,29.93
2022-10-30T11:43:50.050Z,29.24
2022-10-30T11:46:24.256Z,29.70
2022-10-30T11:48:54.883Z,29.92
2022-10-30T11:51:38.344Z,29.41
2022-10-30T11:54:11.213Z,29.92
2022-10-30T11:56:47.200Z,29.04
2022-10-30T11:59:19.855Z,28.59
2022-10-30T12:02:00.020Z,29.13
2022-10-30T12:04:29.295Z,29.42
2022-10-30T12:07:08.904Z,28.79
2022-10-30T12:09:45.476Z,30.13
2022-10-30T12:12:22.143Z,30.32
2022-10-30T12:14:50.563Z,30.77
2022-10-30T12:17:20.059Z,31.10
2022-10-30T12:19:50.394Z,31.09
2022-10-30T12:22:31.401Z,31.52
2022-10-30T12:25:02.968Z,30.59
2022-10-30T12:27:33.050Z,31.17
2022-10-30T12:30:10.297Z,31.51
2022-10-30T12:32:46.591Z,31.77
2022-10-30T12:35:29.683Z,31.79
2022-10-30T12:38:00.829Z,32.58
2022-10-30T12:40:32.488Z,32.07
2022-10-30T12:43:06.041Z,31.86
2022-10-30T12:45:38.610Z,32.12
2022-10-30T12:48:16.841Z,32.68
2022-10-30T12:50:51.919Z,32.83
2022-10-30T12:53:28.396Z,32.86
2022-10-30T12:56:01.292Z,33.03
2022-10-30T12:58:35.330Z,33.70
2022-10-30T13:01:13.694Z,33.59
2022-10-30T13:03:48.815Z,34.21
2022-10-30T13:06:20.013Z,34.86
2022-10-30T13:09:57.056Z,-139.23
2022-10-30T13:13:31.044Z,-139.23
2022-10-30T13:16:16.502Z,34.86
2022-10-30T13:19:17.469Z,-139.23
2022-10-30T13:22:48.156Z,-139.23
2022-10-30T13:26:24.871Z,-139.23
2022-10-30T13:29:05.888Z,-139.23
2022-10-30T13:31:46.191Z,-139.23
2022-10-30T13:34:28.041Z,-139.23
2022-10-30T13:37:41.259Z,-139.23
2022-10-30T13:40:17.487Z,30.45
2022-10-30T13:42:58.478Z,31.23
2022-10-30T13:46:05.547Z,31.42
2022-10-30T13:48:48.486Z,30.53
2022-10-30T13:51:29.052Z,30.58
2022-10-30T13:54:05.315Z,30.74
2022-10-30T13:56:34.438Z,30.15
2022-10-30T13:59:10.951Z,29.26
2022-10-30T14:01:44.434Z,28.40
2022-10-30T14:04:17.227Z,27.57
2022-10-30T14:06:53.222Z,26.11
2022-10-30T14:09:30.721Z,24.80
2022-10-30T14:12:03.393Z,24.04
2022-10-30T14:14:32.743Z,24.25
2022-10-30T14:17:17.381Z,24.06
2022-10-30T14:20:30.778Z,23.93
2022-10-30T14:23:09.693Z,24.09
2022-10-30T14:25:37.779Z,23.87
2022-10-30T14:28:06.474Z,23.88
2022-10-30T14:30:36.616Z,23.79
2022-10-30T14:33:05.625Z,24.01
2022-10-30T14:35:39.241Z,24.47
2022-10-30T14:38:26.585Z,24.29
2022-10-30T14:41:23.289Z,23.65
2022-10-30T14:44:01.911Z,22.75
2022-10-30T14:46:37.362Z,21.95
2022-10-30T14:49:26.481Z,21.59
2022-10-30T14:52:05.481Z,21.43
2022-10-30T14:54:40.598Z,21.12
2022-10-30T14:57:22.594Z,20.76
2022-10-30T14:59:50.267Z,20.39
2022-10-30T15:02:33.218Z,20.15
2022-10-30T15:05:18.893Z,19.84
2022-10-30T15:07:52.406Z,19.69
2022-10-30T15:10:28.643Z,19.59
2022-10-30T15:13:06.439Z,19.50
2022-10-30T15:15:35.063Z,19.44
2022-10-30T15:18:09.374Z,19.25
2022-10-30T15:20:39.917Z,19.16
2022-10-30T15:23:11.774Z,18.98
2022-10-30T15:25:47.771Z,18.81
2022-10-30T15:28:19.827Z,18.73
2022-10-30T15:31:01.521Z,18.53
2022-10-30T15:33:31.398Z,18.38
2022-10-30T15:36:00.859Z,18.17
2022-10-30T15:38:28.450Z,17.89
2022-10-30T15:40:59.346Z,17.65
2022-10-30T15:43:30.943Z,17.54
2022-10-30T15:46:53.990Z,-139.23
2022-10-30T15:49:33.175Z,17.19
2022-10-30T15:52:04.171Z,17.13
2022-10-30T15:54:34.091Z,17.11
2022-10-30T15:57:42.716Z,17.09
2022-10-30T15:59:52.812Z,17.00
2022-10-30T16:02:22.500Z,16.92
2022-10-30T16:04:51.070Z,16.87
2022-10-30T16:07:22.490Z,16.83
2022-10-30T16:09:54.633Z,16.78
2022-10-30T16:12:25.723Z,16.72
2022-10-30T16:14:53.876Z,16.65
2022-10-30T16:17:22.227Z,16.61
2022-10-30T16:19:53.356Z,16.56
2022-10-30T16:22:26.107Z,16.49
2022-10-30T16:24:55.272Z,16.42
2022-10-30T16:27:24.853Z,16.33
2022-10-30T16:29:54.927Z,16.25
2022-10-30T16:32:25.989Z,16.19
2022-10-30T16:34:57.604Z,16.17
2022-10-30T16:37:33.150Z,16.12
2022-10-30T16:40:03.895Z,16.09
2022-10-30T16:42:32.923Z,15.98
2022-10-30T16:45:38.297Z,15.88
2022-10-30T16:48:14.038Z,15.82
2022-10-30T16:50:42.101Z,15.73
2022-10-30T16:53:19.518Z,15.68
2022-10-30T16:55:47.791Z,15.62
2022-10-30T16:58:17.052Z,15.56
2022-10-30T17:00:51.296Z,15.49
2022-10-30T17:03:23.746Z,15.47
2022-10-30T17:05:59.267Z,15.39
2022-10-30T17:08:35.627Z,15.31
2022-10-30T17:11:05.058Z,15.21
2022-10-30T17:13:36.277Z,15.20
2022-10-30T17:16:24.679Z,15.19
2022-10-30T17:18:54.466Z,15.22
2022-10-30T17:21:24.950Z,15.19
2022-10-30T17:23:57.396Z,15.16
2022-10-30T17:26:26.944Z,15.13
2022-10-30T17:28:55.002Z,15.03
2022-10-30T17:31:32.013Z,14.99
2022-10-30T17:34:14.073Z,14.97
2022-10-30T17:36:42.179Z,14.96
2022-10-30T17:39:11.228Z,14.96
2022-10-30T17:41:39.822Z,14.99
2022-10-30T17:44:08.486Z,15.01
2022-10-30T17:46:36.010Z,15.04
2022-10-30T17:49:03.788Z,15.27
2022-10-30T17:51:32.600Z,15.46
2022-10-30T17:56:32.321Z,15.46
2022-10-30T17:58:59.966Z,-139.23
2022-10-30T18:01:28.466Z,15.46
2022-10-30T18:03:58.015Z,15.46
2022-10-30T18:06:27.549Z,15.46
2022-10-30T18:08:55.581Z,15.46
2022-10-30T18:11:26.947Z,15.46
2022-10-30T18:13:57.706Z,15.46
2022-10-30T18:16:26.489Z,-139.23
2022-10-30T18:21:23.515Z,-139.23
2022-10-30T18:23:53.078Z,-139.23
2022-10-30T18:26:23.698Z,-139.23
2022-10-30T18:28:52.041Z,-139.23
2022-10-30T18:31:24.212Z,-139.23
2022-10-30T18:33:52.584Z,-139.23
2022-10-30T18:36:22.109Z,-139.23
2022-10-30T18:38:49.989Z,-139.23
2022-10-30T18:41:20.395Z,-139.23
2022-10-30T18:43:48.261Z,-139.23
2022-10-30T18:46:17.099Z,-139.23
2022-10-30T18:48:46.712Z,-139.23
2022-10-30T18:51:18.279Z,-139.23
2022-10-30T18:53:51.659Z,-139.23
2022-10-30T18:56:20.342Z,-139.23
2022-10-30T18:58:48.058Z,-139.23
2022-10-30T19:01:16.969Z,-139.23
2022-10-30T19:03:47.072Z,-139.23
2022-10-30T19:06:16.365Z,-139.23
2022-10-30T19:08:43.880Z,-139.23
2022-10-30T19:11:13.591Z,-139.23
2022-10-30T19:13:41.955Z,-139.23
2022-10-30T19:16:12.963Z,-139.23
2022-10-30T19:18:40.487Z,-139.23
2022-10-30T19:21:15.786Z,-139.23
2022-10-30T19:23:44.248Z,-139.23
2022-10-30T19:26:13.706Z,-139.23
2022-10-30T19:28:41.573Z,-139.23
2022-10-30T19:31:13.994Z,-139.23
2022-10-30T19:33:41.739Z,-139.23
2022-10-30T19:36:28.310Z,-139.23
2022-10-30T19:38:56.085Z,-139.23
2022-10-30T19:41:24.675Z,-139.23
2022-10-30T19:43:52.812Z,-139.23
2022-10-30T19:46:21.020Z,-139.23
2022-10-30T19:48:57.756Z,-139.23
2022-10-30T19:51:28.038Z,-139.23
2022-10-30T19:53:55.511Z,-139.23
2022-10-30T19:56:23.164Z,-139.23
2022-10-30T19:58:50.782Z,-139.23
2022-10-30T20:01:18.590Z,-139.23
2022-10-30T20:03:46.990Z,-139.23
2022-10-30T20:06:16.138Z,-139.23
2022-10-30T20:08:44.966Z,-139.23
2022-10-30T20:11:12.592Z,-139.23
2022-10-30T20:13:40.230Z,-139.23
2022-10-30T20:16:08.631Z,-139.23
2022-10-30T20:18:36.844Z,-139.23
2022-10-30T20:21:08.160Z,-139.23
2022-10-30T20:23:35.706Z,-139.23
2022-10-30T20:26:07.040Z,-139.23
2022-10-30T20:28:37.512Z,-139.23
2022-10-30T20:31:05.815Z,-139.23
2022-10-30T20:33:33.964Z,-139.23
2022-10-30T20:36:01.874Z,-139.23
2022-10-30T20:38:32.764Z,-139.23
2022-10-30T20:41:02.108Z,-139.23
2022-10-30T20:43:33.306Z,-139.23
2022-10-30T20:46:01.530Z,-139.23
2022-10-30T20:48:29.571Z,-139.23
2022-10-30T20:50:58.058Z,-139.23
2022-10-30T20:53:25.979Z,-139.23
2022-10-30T20:55:55.817Z,-139.23
2022-10-30T20:58:23.267Z,-139.23
2022-10-30T21:00:54.870Z,-139.23
2022-10-30T21:03:22.379Z,-139.23
2022-10-30T21:05:56.068Z,-139.23
2022-10-30T21:08:23.723Z,-139.23
2022-10-30T21:10:51.295Z,-139.23
2022-10-30T21:13:18.751Z,-139.23
2022-10-30T21:15:46.285Z,-139.23
2022-10-30T21:18:15.114Z,-139.23
2022-10-30T21:20:42.714Z,-139.23
2022-10-30T21:23:10.744Z,-139.23
2022-10-30T21:25:38.201Z,-139.23
2022-10-30T21:28:05.988Z,-139.23
2022-10-30T21:30:33.454Z,-139.23
2022-10-30T21:33:01.706Z,-139.23
2022-10-30T21:35:30.859Z,-139.23
2022-10-30T21:37:58.416Z,-139.23
2022-10-30T21:40:26.001Z,-139.23
2022-10-30T21:42:53.465Z,-139.23
2022-10-30T21:45:21.024Z,-139.23
2022-10-30T21:47:52.530Z,-139.23
2022-10-30T21:50:19.986Z,-139.23
2022-10-30T21:52:48.747Z,-139.23
2022-10-30T21:55:16.215Z,-139.23
2022-10-30T21:57:43.812Z,-139.23
2022-10-30T22:00:12.815Z,-139.23
2022-10-30T22:02:41.527Z,-139.23
2022-10-30T22:05:09.960Z,-139.23
2022-10-30T22:07:37.413Z,-139.23
2022-10-30T22:10:07.726Z,-139.23
2022-10-30T22:12:35.195Z,-139.23
2022-10-30T22:15:02.672Z,-139.23
2022-10-30T22:17:32.371Z,-139.23
2022-10-30T22:20:02.699Z,-139.23
2022-10-30T22:22:30.695Z,-139.23
2022-10-30T22:24:58.106Z,-139.23
2022-10-30T22:27:26.919Z,-139.23
2022-10-30T22:29:54.421Z,-139.23
2022-10-30T22:32:23.102Z,-139.23
2022-10-30T22:34:50.662Z,-139.23
2022-10-30T22:37:18.724Z,-139.23
2022-10-30T22:39:46.348Z,-139.23
2022-10-30T22:42:13.934Z,-139.23
2022-10-30T22:44:43.215Z,-139.23
2022-10-30T22:47:10.934Z,-139.23
2022-10-30T22:49:38.530Z,-139.23
2022-10-30T22:52:06.259Z,-139.23
2022-10-30T22:54:33.794Z,-139.23
2022-10-30T22:57:01.615Z,-139.23
2022-10-30T22:59:29.055Z,-139.23
2022-10-30T23:01:58.060Z,-139.23
2022-10-30T23:04:25.771Z,-139.23
2022-10-30T23:06:54.052Z,-139.23
2022-10-30T23:09:23.106Z,-139.23
2022-10-30T23:11:50.851Z,-139.23
2022-10-30T23:14:19.073Z,-139.23
2022-10-30T23:16:46.622Z,-139.23
2022-10-30T23:19:15.544Z,-139.23
2022-10-30T23:21:43.101Z,-139.23
2022-10-30T23:24:10.701Z,-139.23
2022-10-30T23:26:38.251Z,-139.23
2022-10-30T23:29:05.915Z,-139.23
2022-10-30T23:31:36.144Z,-139.23
2022-10-30T23:34:06.420Z,-139.23
2022-10-30T23:36:35.340Z,-139.23
2022-10-30T23:39:06.291Z,-139.23
2022-10-30T23:41:35.090Z,-139.23
2022-10-30T23:44:04.892Z,-139.23
2022-10-30T23:46:32.799Z,-139.23
2022-10-30T23:49:03.404Z,-139.23
2022-10-30T23:51:31.629Z,-139.23
2022-10-30T23:54:00.959Z,-139.23
2022-10-30T23:56:31.179Z,-139.23
2022-10-30T23:58:59.066Z,-139.23
